Sylvan Grove, Kansas
Current Conditions -  °F | °C
As of 12:53 PM on Thursday 30 Oct 2014 (Local Time) from KRSL Reporting Station
Clear Clear  
Wind Chill: 67°   Ceiling: Unl
Heat Index: 67°   Visibility: 10mi
Dew Point: 37°   Wind: 17mph
Humidity: 33%   Direction: 320°NW
Pressure: 30.19"   Gusts: 28mph
Location:  39.01°N, 98.39°W
Report Text: KRSL 301753Z AUTO 32015G24KT 10SM CLR 19/03 A3019 RMK AO2 PK WND 32026/1742 SLP222 T01940028 10194 20078 50006
Loading
Personal Weather Stations






























Interactive Weather Map
Tropical Storm Tracking
New forecast layout! Learn more

10-Day Weather Forecast

Advertisements
Track Severe Weather on mobile